createdAt,value
2018-07-25T00:02:07.287Z,4.60
2018-07-25T00:04:38.983Z,4.33
2018-07-25T00:07:09.084Z,4.07
2018-07-25T00:09:39.473Z,4.27
2018-07-25T00:12:10.230Z,4.73
2018-07-25T00:14:40.262Z,4.60
2018-07-25T00:17:11.667Z,4.43
2018-07-25T00:19:41.942Z,5.10
2018-07-25T00:22:12.491Z,5.10
2018-07-25T00:24:43.254Z,4.50
2018-07-25T00:27:13.378Z,4.93
2018-07-25T00:29:44.135Z,4.60
2018-07-25T00:32:14.749Z,5.57
2018-07-25T00:34:45.100Z,5.20
2018-07-25T00:37:15.797Z,4.53
2018-07-25T00:39:45.788Z,4.70
2018-07-25T00:42:16.085Z,4.87
2018-07-25T00:44:46.477Z,5.27
2018-07-25T00:47:17.055Z,5.00
2018-07-25T00:49:50.351Z,4.60
2018-07-25T00:52:20.319Z,4.57
2018-07-25T00:54:51.147Z,4.73
2018-07-25T00:57:21.682Z,4.63
2018-07-25T00:59:51.782Z,4.37
2018-07-25T01:02:21.776Z,4.80
2018-07-25T01:04:53.747Z,5.20
2018-07-25T01:07:25.222Z,4.63
2018-07-25T01:09:55.176Z,4.90
2018-07-25T01:12:26.133Z,4.80
2018-07-25T01:14:56.437Z,5.70
2018-07-25T01:17:26.430Z,5.10
2018-07-25T01:19:59.520Z,4.90
2018-07-25T01:22:29.816Z,4.60
2018-07-25T01:25:00.308Z,4.90
2018-07-25T01:27:30.272Z,4.83
2018-07-25T01:30:00.277Z,4.80
2018-07-25T01:32:30.256Z,4.97
2018-07-25T01:35:00.683Z,5.20
2018-07-25T01:37:30.693Z,5.10
2018-07-25T01:40:01.606Z,4.93
2018-07-25T01:42:31.830Z,5.03
2018-07-25T01:45:01.982Z,5.23
2018-07-25T01:47:31.982Z,4.97
2018-07-25T01:50:02.409Z,5.00
2018-07-25T01:52:32.432Z,4.90
2018-07-25T01:55:02.314Z,4.73
2018-07-25T01:57:32.518Z,5.00
2018-07-25T02:00:02.519Z,5.50
2018-07-25T02:02:32.485Z,4.93
2018-07-25T02:05:02.882Z,5.60
2018-07-25T02:07:32.884Z,4.83
2018-07-25T02:10:02.871Z,4.73
2018-07-25T02:12:32.864Z,5.10
2018-07-25T02:15:02.898Z,5.10
2018-07-25T02:17:32.896Z,5.50
2018-07-25T02:20:04.378Z,4.90
2018-07-25T02:22:34.407Z,5.40
2018-07-25T02:25:04.431Z,4.90
2018-07-25T02:27:34.571Z,4.97
2018-07-25T02:30:04.720Z,5.00
2018-07-25T02:32:34.792Z,5.13
2018-07-25T02:35:05.262Z,4.87
2018-07-25T02:37:35.701Z,5.10
2018-07-25T02:40:05.699Z,4.80
2018-07-25T02:42:35.742Z,5.50
2018-07-25T02:45:05.726Z,5.30
2018-07-25T02:47:35.815Z,5.17
2018-07-25T02:50:06.521Z,5.27
2018-07-25T02:52:36.666Z,5.03
2018-07-25T02:55:07.566Z,5.03
2018-07-25T02:57:37.563Z,5.03
2018-07-25T03:00:07.974Z,5.30
2018-07-25T03:02:37.938Z,4.90
2018-07-25T03:05:08.774Z,4.57
2018-07-25T03:07:38.856Z,5.37
2018-07-25T03:10:08.875Z,5.50
2018-07-25T03:12:38.937Z,5.10
2018-07-25T03:15:08.962Z,5.20
2018-07-25T03:17:38.905Z,5.20
2018-07-25T03:20:09.346Z,5.40
2018-07-25T03:22:39.311Z,5.00
2018-07-25T03:25:09.279Z,5.33
2018-07-25T03:27:39.297Z,5.70
2018-07-25T03:30:09.261Z,5.80
2018-07-25T03:32:39.390Z,4.87
2018-07-25T03:35:09.855Z,5.40
2018-07-25T03:37:39.830Z,5.60
2018-07-25T03:40:09.960Z,5.33
2018-07-25T03:42:40.127Z,5.87
2018-07-25T03:45:10.104Z,5.33
2018-07-25T03:47:40.038Z,5.50
2018-07-25T03:50:10.610Z,5.20
2018-07-25T03:52:40.636Z,5.20
2018-07-25T03:55:11.254Z,5.20
2018-07-25T03:57:41.370Z,5.43
2018-07-25T04:00:11.410Z,5.07
2018-07-25T04:02:41.666Z,5.43
2018-07-25T04:05:12.923Z,5.93
2018-07-25T04:07:43.070Z,6.13
2018-07-25T04:10:13.031Z,5.37
2018-07-25T04:12:42.971Z,5.93
2018-07-25T04:15:12.927Z,5.63
2018-07-25T04:17:45.506Z,5.63
2018-07-25T04:20:16.746Z,5.67
2018-07-25T04:22:46.762Z,6.07
2018-07-25T04:25:16.790Z,5.90
2018-07-25T04:27:47.422Z,5.53
2018-07-25T04:30:18.158Z,6.10
2018-07-25T04:32:48.127Z,5.80
2018-07-25T04:35:18.452Z,5.70
2018-07-25T04:37:48.400Z,5.83
2018-07-25T04:40:18.446Z,5.57
2018-07-25T04:42:48.824Z,5.33
2018-07-25T04:45:18.726Z,6.40
2018-07-25T04:47:48.711Z,5.47
2018-07-25T04:50:18.628Z,6.20
2018-07-25T04:52:48.598Z,5.73
2018-07-25T04:55:18.631Z,5.60
2018-07-25T04:57:48.637Z,5.27
2018-07-25T05:00:18.568Z,6.10
2018-07-25T05:02:48.575Z,5.37
2018-07-25T05:05:19.009Z,5.70
2018-07-25T05:07:49.655Z,4.97
2018-07-25T05:10:19.907Z,5.27
2018-07-25T05:12:50.011Z,4.83
2018-07-25T05:15:20.103Z,5.30
2018-07-25T05:17:50.053Z,5.37
2018-07-25T05:20:20.363Z,6.00
2018-07-25T05:22:50.479Z,5.53
2018-07-25T05:25:20.450Z,5.20
2018-07-25T05:27:51.045Z,5.53
2018-07-25T05:30:21.013Z,6.20
2018-07-25T05:32:50.972Z,6.40
2018-07-25T05:35:31.343Z,5.77
2018-07-25T05:38:01.477Z,5.40
2018-07-25T05:40:31.483Z,6.00
2018-07-25T05:43:01.458Z,5.43
2018-07-25T05:45:32.450Z,5.50
2018-07-25T05:48:02.571Z,5.43
2018-07-25T05:50:33.061Z,5.37
2018-07-25T05:53:03.046Z,4.87
2018-07-25T05:55:33.305Z,4.77
2018-07-25T05:58:03.364Z,4.90
2018-07-25T06:00:33.299Z,4.30
2018-07-25T06:03:03.313Z,4.23
2018-07-25T06:05:33.764Z,4.50
2018-07-25T06:08:05.679Z,3.90
2018-07-25T06:10:35.695Z,4.30
2018-07-25T06:13:05.663Z,3.77
2018-07-25T06:15:35.700Z,4.20
2018-07-25T06:18:05.743Z,4.40
2018-07-25T06:20:37.316Z,4.30
2018-07-25T06:23:07.493Z,4.07
2018-07-25T06:25:37.604Z,4.07
2018-07-25T06:28:08.734Z,4.23
2018-07-25T06:30:38.672Z,3.83
2018-07-25T06:33:14.595Z,3.67
2018-07-25T06:35:46.114Z,3.80
2018-07-25T06:38:16.505Z,3.93
2018-07-25T06:40:48.811Z,3.80
2018-07-25T06:43:19.276Z,3.87
2018-07-25T06:45:50.455Z,4.23
2018-07-25T06:48:21.375Z,3.80
2018-07-25T06:50:52.803Z,4.27
2018-07-25T06:53:24.252Z,4.10
2018-07-25T06:55:54.179Z,3.60
2018-07-25T06:58:30.003Z,3.80
2018-07-25T07:01:00.915Z,4.33
2018-07-25T07:03:32.079Z,3.97
2018-07-25T07:06:08.266Z,4.17
2018-07-25T07:08:39.187Z,4.27
2018-07-25T07:11:10.138Z,4.20
2018-07-25T07:13:40.698Z,4.43
2018-07-25T07:16:11.594Z,3.97
2018-07-25T07:18:42.254Z,3.70
2018-07-25T07:21:12.655Z,3.63
2018-07-25T07:23:44.088Z,3.37
2018-07-25T07:26:15.856Z,4.40
2018-07-25T07:28:47.142Z,4.00
2018-07-25T07:31:17.113Z,3.97
2018-07-25T07:33:48.183Z,3.90
2018-07-25T07:36:18.278Z,4.10
2018-07-25T07:38:51.767Z,3.77
2018-07-25T07:41:21.738Z,3.97
2018-07-25T07:43:52.285Z,3.70
2018-07-25T07:46:22.621Z,3.80
2018-07-25T07:48:52.556Z,3.27
2018-07-25T07:51:22.476Z,3.43
2018-07-25T07:53:56.551Z,3.40
2018-07-25T07:56:28.238Z,3.13
2018-07-25T07:59:01.270Z,3.30
2018-07-25T08:01:36.250Z,2.97
2018-07-25T08:04:07.443Z,3.33
2018-07-25T08:06:37.986Z,3.13
2018-07-25T08:09:12.897Z,3.07
2018-07-25T08:11:42.921Z,3.27
2018-07-25T08:14:13.075Z,3.50
2018-07-25T08:16:43.846Z,3.60
2018-07-25T08:19:15.839Z,3.50
2018-07-25T08:21:46.763Z,3.33
2018-07-25T08:24:17.126Z,2.87
2018-07-25T08:26:47.019Z,2.97
2018-07-25T08:29:17.740Z,2.53
2018-07-25T08:31:47.668Z,2.93
2018-07-25T08:34:18.982Z,2.60
2018-07-25T08:36:50.054Z,2.40
2018-07-25T08:39:20.015Z,2.70
2018-07-25T08:41:50.304Z,2.50
2018-07-25T08:44:21.973Z,2.80
2018-07-25T08:46:52.243Z,2.87
2018-07-25T08:49:23.338Z,2.07
2018-07-25T08:51:53.911Z,2.23
2018-07-25T08:54:25.003Z,2.77
2018-07-25T08:56:55.278Z,2.30
2018-07-25T08:59:25.207Z,2.40
2018-07-25T09:01:55.484Z,2.30
2018-07-25T09:04:26.394Z,2.10
2018-07-25T09:06:58.375Z,2.60
2018-07-25T09:09:29.356Z,2.50
2018-07-25T09:11:59.582Z,2.53
2018-07-25T09:14:30.509Z,3.17
2018-07-25T09:17:03.651Z,2.90
2018-07-25T09:19:35.549Z,2.50
2018-07-25T09:22:06.757Z,2.43
2018-07-25T09:24:36.723Z,2.50
2018-07-25T09:27:07.279Z,2.50
2018-07-25T09:29:37.535Z,2.53
2018-07-25T09:32:08.503Z,2.70
2018-07-25T09:34:39.283Z,2.67
2018-07-25T09:37:09.791Z,2.87
2018-07-25T09:39:40.776Z,2.63
2018-07-25T09:42:11.795Z,2.70
2018-07-25T09:44:41.815Z,3.10
2018-07-25T09:47:13.198Z,3.00
2018-07-25T09:49:43.406Z,3.13
2018-07-25T09:52:14.499Z,2.97
2018-07-25T09:54:44.454Z,3.20
2018-07-25T09:57:15.313Z,3.00
2018-07-25T09:59:47.172Z,3.20
2018-07-25T10:02:17.167Z,2.90
2018-07-25T10:04:47.334Z,2.73
2018-07-25T10:07:19.367Z,2.90
2018-07-25T10:09:51.420Z,3.97
2018-07-25T10:12:25.248Z,3.13
2018-07-25T10:14:55.204Z,3.17
2018-07-25T10:17:26.160Z,3.30
2018-07-25T10:19:56.340Z,3.43
2018-07-25T10:22:27.093Z,3.00
2018-07-25T10:24:57.407Z,2.57
2018-07-25T10:27:29.403Z,3.17
2018-07-25T10:30:00.777Z,2.90
2018-07-25T10:32:35.190Z,3.10
2018-07-25T10:35:07.023Z,3.20
2018-07-25T10:37:37.623Z,3.23
2018-07-25T10:40:08.987Z,3.00
2018-07-25T10:42:51.843Z,3.37
2018-07-25T10:45:27.432Z,3.07
2018-07-25T10:50:39.361Z,3.13
2018-07-25T10:53:09.432Z,2.57
2018-07-25T10:58:26.148Z,3.07
2018-07-25T11:00:56.216Z,2.57
2018-07-25T11:03:27.341Z,2.97
2018-07-25T11:05:59.385Z,3.00
2018-07-25T11:08:30.357Z,2.97
2018-07-25T11:11:01.243Z,3.00
2018-07-25T11:13:33.366Z,3.17
2018-07-25T11:16:07.216Z,2.90
2018-07-25T11:18:37.823Z,3.00
2018-07-25T11:21:09.484Z,2.67
2018-07-25T11:23:41.416Z,3.43
2018-07-25T11:26:12.087Z,2.93
2018-07-25T11:28:44.356Z,3.30
2018-07-25T11:31:16.401Z,2.77
2018-07-25T11:33:46.903Z,3.03
2018-07-25T11:36:19.040Z,2.63
2018-07-25T11:38:49.448Z,3.10
2018-07-25T11:41:21.899Z,3.03
2018-07-25T11:43:52.309Z,3.00
2018-07-25T11:46:22.879Z,3.63
2018-07-25T11:48:56.538Z,2.93
2018-07-25T11:51:27.268Z,2.97
2018-07-25T11:54:00.555Z,3.27
2018-07-25T11:56:38.459Z,3.47
2018-07-25T11:59:10.291Z,2.87
2018-07-25T12:01:41.648Z,2.90
2018-07-25T12:04:11.871Z,3.27
2018-07-25T12:06:43.683Z,3.17
2018-07-25T12:09:14.042Z,2.90
2018-07-25T12:11:49.179Z,3.10
2018-07-25T12:14:20.352Z,3.00
2018-07-25T12:16:52.181Z,3.10
2018-07-25T12:19:22.358Z,3.13
2018-07-25T12:21:52.455Z,2.80
2018-07-25T12:24:23.480Z,3.33
2018-07-25T12:26:53.795Z,3.10
2018-07-25T12:29:25.142Z,2.77
2018-07-25T12:31:55.868Z,2.50
2018-07-25T12:34:30.020Z,3.03
2018-07-25T12:37:02.155Z,2.90
2018-07-25T12:39:32.680Z,3.10
2018-07-25T12:42:02.710Z,3.03
2018-07-25T12:44:33.566Z,2.83
2018-07-25T12:47:04.110Z,3.17
2018-07-25T12:49:34.406Z,3.37
2018-07-25T12:52:04.518Z,2.70
2018-07-25T12:54:35.447Z,2.77
2018-07-25T12:57:05.413Z,3.20
2018-07-25T12:59:35.883Z,3.10
2018-07-25T13:02:08.468Z,3.23
2018-07-25T13:04:38.455Z,2.83
2018-07-25T13:07:09.463Z,3.17
2018-07-25T13:09:40.574Z,2.70
2018-07-25T13:12:10.570Z,3.13
2018-07-25T13:14:43.435Z,3.30
2018-07-25T13:17:13.540Z,2.97
2018-07-25T13:19:43.791Z,3.30
2018-07-25T13:22:13.879Z,3.50
2018-07-25T13:24:45.913Z,3.37
2018-07-25T13:27:16.431Z,3.07
2018-07-25T13:29:46.617Z,3.27
2018-07-25T13:32:17.315Z,2.97
2018-07-25T13:34:47.918Z,3.03
2018-07-25T13:37:19.350Z,3.20
2018-07-25T13:39:50.890Z,3.00
2018-07-25T13:42:22.890Z,2.90
2018-07-25T13:44:55.405Z,2.83
2018-07-25T13:47:31.097Z,2.97
2018-07-25T13:50:01.527Z,3.17
2018-07-25T13:52:33.095Z,3.00
2018-07-25T13:55:06.626Z,2.87
2018-07-25T13:57:36.785Z,3.07
2018-07-25T14:00:10.136Z,2.80
2018-07-25T14:02:47.821Z,2.90
2018-07-25T14:05:18.690Z,2.90
2018-07-25T14:07:50.122Z,2.70
2018-07-25T14:10:20.551Z,2.87
2018-07-25T14:12:50.561Z,2.80
2018-07-25T14:15:20.958Z,2.80
2018-07-25T14:17:52.409Z,2.87
2018-07-25T14:20:23.784Z,2.67
2018-07-25T14:22:54.159Z,2.80
2018-07-25T14:25:24.582Z,2.43
2018-07-25T14:27:55.926Z,2.87
2018-07-25T14:30:28.644Z,2.87
2018-07-25T14:33:04.845Z,2.70
2018-07-25T14:35:36.572Z,2.80
2018-07-25T14:38:14.576Z,2.80
2018-07-25T14:40:45.934Z,2.70
2018-07-25T14:43:16.533Z,2.40
2018-07-25T14:45:48.164Z,2.70
2018-07-25T14:48:21.437Z,2.60
2018-07-25T14:51:01.939Z,2.80
2018-07-25T14:53:32.574Z,2.73
2018-07-25T14:56:03.380Z,3.20
2018-07-25T14:58:37.894Z,2.67
2018-07-25T15:01:16.186Z,2.33
2018-07-25T15:03:48.228Z,2.63
2018-07-25T15:06:19.789Z,2.67
2018-07-25T15:08:52.297Z,2.77
2018-07-25T15:11:22.279Z,2.20
2018-07-25T15:13:53.814Z,2.60
2018-07-25T15:16:23.755Z,2.47
2018-07-25T15:18:54.877Z,2.23
2018-07-25T15:21:27.166Z,2.40
2018-07-25T15:24:04.232Z,2.40
2018-07-25T15:26:34.613Z,2.80
2018-07-25T15:29:05.336Z,2.60
2018-07-25T15:31:35.547Z,2.60
2018-07-25T15:34:06.448Z,2.53
2018-07-25T15:36:46.520Z,2.20
2018-07-25T15:39:22.499Z,2.27
2018-07-25T15:41:54.115Z,2.10
2018-07-25T15:44:25.306Z,2.53
2018-07-25T15:46:56.744Z,2.63
2018-07-25T15:49:27.423Z,2.40
2018-07-25T15:51:58.217Z,2.70
2018-07-25T15:54:29.019Z,2.40
2018-07-25T15:57:00.479Z,2.80
2018-07-25T15:59:31.164Z,2.43
2018-07-25T16:02:02.353Z,2.50
2018-07-25T16:04:33.338Z,2.37
2018-07-25T16:07:03.282Z,2.40
2018-07-25T16:09:34.131Z,2.50
2018-07-25T16:12:08.089Z,2.60
2018-07-25T16:14:38.074Z,2.60
2018-07-25T16:17:10.021Z,2.53
2018-07-25T16:20:12.060Z,2.10
2018-07-25T16:22:47.150Z,2.40
2018-07-25T16:25:20.603Z,2.53
2018-07-25T16:27:51.425Z,2.40
2018-07-25T16:30:24.913Z,2.60
2018-07-25T16:33:01.411Z,2.30
2018-07-25T16:35:32.523Z,2.40
2018-07-25T16:38:04.444Z,2.50
2018-07-25T16:43:13.480Z,2.50
2018-07-25T16:45:44.179Z,2.40
2018-07-25T16:48:15.867Z,2.40
2018-07-25T16:50:47.276Z,2.63
2018-07-25T16:53:24.979Z,2.40
2018-07-25T16:55:55.506Z,2.77
2018-07-25T16:58:26.450Z,2.40
2018-07-25T17:01:09.020Z,2.33
2018-07-25T17:03:43.669Z,2.43
2018-07-25T17:06:17.851Z,2.77
2018-07-25T17:08:58.668Z,2.30
2018-07-25T17:11:32.281Z,2.30
2018-07-25T17:14:41.277Z,2.60
2018-07-25T17:25:04.620Z,2.80
2018-07-25T17:27:51.759Z,2.27
2018-07-25T17:30:46.715Z,2.30
2018-07-25T17:33:19.862Z,2.33
2018-07-25T17:35:54.871Z,3.00
2018-07-25T17:38:44.868Z,2.50
2018-07-25T17:41:16.569Z,2.77
2018-07-25T17:46:38.435Z,2.93
2018-07-25T17:49:13.802Z,2.73
2018-07-25T17:51:43.838Z,2.60
2018-07-25T17:54:24.336Z,2.70
2018-07-25T17:59:50.986Z,2.40
2018-07-25T18:02:35.561Z,2.60
2018-07-25T18:05:08.790Z,2.67
2018-07-25T18:08:05.324Z,2.60
2018-07-25T18:10:43.015Z,2.30
2018-07-25T18:13:25.403Z,3.00
2018-07-25T18:15:58.395Z,2.70
2018-07-25T18:18:29.650Z,2.97
2018-07-25T18:21:00.378Z,2.40
2018-07-25T18:23:35.505Z,2.50
2018-07-25T18:26:08.033Z,2.40
2018-07-25T18:28:50.104Z,2.70
2018-07-25T18:31:39.861Z,2.63
2018-07-25T18:34:21.428Z,2.80
2018-07-25T18:36:58.451Z,2.53
2018-07-25T18:39:47.851Z,2.80
2018-07-25T18:42:32.003Z,2.57
2018-07-25T18:45:11.814Z,2.73
2018-07-25T18:47:53.446Z,2.43
2018-07-25T18:50:32.232Z,2.70
